sensor_id;sensor_type;location;lat;lon;timestamp;temperature;humidity
14985;DHT22;7588;62.368;25.902;2023-02-28T00:01:05;3.00;99.90
14985;DHT22;7588;62.368;25.902;2023-02-28T00:03:31;3.00;99.90
14985;DHT22;7588;62.368;25.902;2023-02-28T00:06:01;3.00;99.90
14985;DHT22;7588;62.368;25.902;2023-02-28T00:08:27;3.00;99.90
14985;DHT22;7588;62.368;25.902;2023-02-28T00:10:53;3.10;99.90
14985;DHT22;7588;62.368;25.902;2023-02-28T00:13:19;3.00;99.90
14985;DHT22;7588;62.368;25.902;2023-02-28T00:15:44;3.00;99.90
14985;DHT22;7588;62.368;25.902;2023-02-28T00:18:11;3.00;99.90
14985;DHT22;7588;62.368;25.902;2023-02-28T00:20:37;3.00;99.90
14985;DHT22;7588;62.368;25.902;2023-02-28T00:23:03;3.10;99.90
14985;DHT22;7588;62.368;25.902;2023-02-28T00:25:28;3.10;99.90
14985;DHT22;7588;62.368;25.902;2023-02-28T00:27:54;3.10;99.90
14985;DHT22;7588;62.368;25.902;2023-02-28T00:30:22;3.20;99.90
14985;DHT22;7588;62.368;25.902;2023-02-28T00:32:49;3.20;99.90
14985;DHT22;7588;62.368;25.902;2023-02-28T00:35:16;3.20;99.90
14985;DHT22;7588;62.368;25.902;2023-02-28T00:37:42;3.20;99.90
14985;DHT22;7588;62.368;25.902;2023-02-28T00:40:08;3.20;99.90
14985;DHT22;7588;62.368;25.902;2023-02-28T00:42:35;3.20;99.90
14985;DHT22;7588;62.368;25.902;2023-02-28T00:45:01;3.20;99.90
14985;DHT22;7588;62.368;25.902;2023-02-28T00:47:29;3.10;99.90
14985;DHT22;7588;62.368;25.902;2023-02-28T00:49:55;3.10;99.90
14985;DHT22;7588;62.368;25.902;2023-02-28T00:52:20;3.20;99.90
14985;DHT22;7588;62.368;25.902;2023-02-28T00:54:47;3.10;99.90
14985;DHT22;7588;62.368;25.902;2023-02-28T00:57:12;3.10;99.90
14985;DHT22;7588;62.368;25.902;2023-02-28T00:59:38;3.20;99.90
14985;DHT22;7588;62.368;25.902;2023-02-28T01:02:04;3.10;99.90
14985;DHT22;7588;62.368;25.902;2023-02-28T01:04:29;3.20;99.90
14985;DHT22;7588;62.368;25.902;2023-02-28T01:06:55;3.20;99.90
14985;DHT22;7588;62.368;25.902;2023-02-28T01:09:21;3.20;99.90
14985;DHT22;7588;62.368;25.902;2023-02-28T01:11:48;3.10;99.90
14985;DHT22;7588;62.368;25.902;2023-02-28T01:14:15;3.10;99.90
14985;DHT22;7588;62.368;25.902;2023-02-28T01:16:42;3.10;99.90
14985;DHT22;7588;62.368;25.902;2023-02-28T01:19:08;3.10;99.90
14985;DHT22;7588;62.368;25.902;2023-02-28T01:21:33;3.00;99.90
14985;DHT22;7588;62.368;25.902;2023-02-28T01:24:01;3.00;99.90
14985;DHT22;7588;62.368;25.902;2023-02-28T01:26:26;3.00;99.90
14985;DHT22;7588;62.368;25.902;2023-02-28T01:28:53;3.00;99.90
14985;DHT22;7588;62.368;25.902;2023-02-28T01:31:20;2.90;99.90
14985;DHT22;7588;62.368;25.902;2023-02-28T01:33:46;2.90;99.90
14985;DHT22;7588;62.368;25.902;2023-02-28T01:36:18;2.80;99.90
14985;DHT22;7588;62.368;25.902;2023-02-28T01:38:44;2.80;99.90
14985;DHT22;7588;62.368;25.902;2023-02-28T01:41:18;2.90;99.90
14985;DHT22;7588;62.368;25.902;2023-02-28T01:46:11;2.80;99.90
14985;DHT22;7588;62.368;25.902;2023-02-28T01:48:42;2.70;99.90
14985;DHT22;7588;62.368;25.902;2023-02-28T01:51:17;2.70;99.90
14985;DHT22;7588;62.368;25.902;2023-02-28T01:53:49;2.70;99.90
14985;DHT22;7588;62.368;25.902;2023-02-28T01:56:20;2.60;99.90
14985;DHT22;7588;62.368;25.902;2023-02-28T01:58:49;2.60;99.90
14985;DHT22;7588;62.368;25.902;2023-02-28T02:01:16;2.60;99.90
14985;DHT22;7588;62.368;25.902;2023-02-28T02:04:04;2.50;99.90
14985;DHT22;7588;62.368;25.902;2023-02-28T02:06:45;2.60;99.90
14985;DHT22;7588;62.368;25.902;2023-02-28T02:09:13;2.50;99.90
14985;DHT22;7588;62.368;25.902;2023-02-28T02:11:42;2.60;99.90
14985;DHT22;7588;62.368;25.902;2023-02-28T02:22:48;2.50;99.90
14985;DHT22;7588;62.368;25.902;2023-02-28T02:36:30;2.50;99.90
14985;DHT22;7588;62.368;25.902;2023-02-28T02:41:51;2.50;99.90
14985;DHT22;7588;62.368;25.902;2023-02-28T02:44:49;2.40;99.90
14985;DHT22;7588;62.368;25.902;2023-02-28T02:47:18;2.40;99.90
14985;DHT22;7588;62.368;25.902;2023-02-28T02:49:55;2.40;99.90
14985;DHT22;7588;62.368;25.902;2023-02-28T02:52:25;2.40;99.90
14985;DHT22;7588;62.368;25.902;2023-02-28T02:54:54;2.30;99.90
14985;DHT22;7588;62.368;25.902;2023-02-28T02:57:30;2.30;99.90
14985;DHT22;7588;62.368;25.902;2023-02-28T02:59:58;2.30;99.90
14985;DHT22;7588;62.368;25.902;2023-02-28T03:02:26;2.20;99.90
14985;DHT22;7588;62.368;25.902;2023-02-28T03:04:58;2.20;99.90
14985;DHT22;7588;62.368;25.902;2023-02-28T03:07:27;2.20;99.90
14985;DHT22;7588;62.368;25.902;2023-02-28T03:09:57;2.20;99.90
14985;DHT22;7588;62.368;25.902;2023-02-28T03:12:59;2.20;99.90
14985;DHT22;7588;62.368;25.902;2023-02-28T03:15:47;2.10;99.90
14985;DHT22;7588;62.368;25.902;2023-02-28T03:21:21;2.00;99.90
14985;DHT22;7588;62.368;25.902;2023-02-28T03:24:11;2.00;99.90
14985;DHT22;7588;62.368;25.902;2023-02-28T03:26:57;2.00;99.90
14985;DHT22;7588;62.368;25.902;2023-02-28T03:29:34;1.90;99.90
14985;DHT22;7588;62.368;25.902;2023-02-28T03:32:05;1.90;99.90
14985;DHT22;7588;62.368;25.902;2023-02-28T03:34:41;1.90;99.90
14985;DHT22;7588;62.368;25.902;2023-02-28T03:37:16;1.80;99.90
14985;DHT22;7588;62.368;25.902;2023-02-28T03:39:54;1.80;99.90
14985;DHT22;7588;62.368;25.902;2023-02-28T03:42:27;1.70;99.90
14985;DHT22;7588;62.368;25.902;2023-02-28T03:45:03;1.70;99.90
14985;DHT22;7588;62.368;25.902;2023-02-28T03:47:40;1.60;99.90
14985;DHT22;7588;62.368;25.902;2023-02-28T03:53:15;1.50;99.90
14985;DHT22;7588;62.368;25.902;2023-02-28T03:55:58;1.50;99.90
14985;DHT22;7588;62.368;25.902;2023-02-28T03:58:41;1.40;99.90
14985;DHT22;7588;62.368;25.902;2023-02-28T04:01:30;1.30;99.90
14985;DHT22;7588;62.368;25.902;2023-02-28T04:03:57;1.30;99.90
14985;DHT22;7588;62.368;25.902;2023-02-28T04:06:24;1.20;99.90
14985;DHT22;7588;62.368;25.902;2023-02-28T04:08:50;1.20;99.90
14985;DHT22;7588;62.368;25.902;2023-02-28T04:11:44;1.20;99.90
14985;DHT22;7588;62.368;25.902;2023-02-28T04:14:11;1.10;99.90
14985;DHT22;7588;62.368;25.902;2023-02-28T04:16:40;1.00;99.90
14985;DHT22;7588;62.368;25.902;2023-02-28T04:19:07;1.00;99.90
14985;DHT22;7588;62.368;25.902;2023-02-28T04:21:35;0.90;99.90
14985;DHT22;7588;62.368;25.902;2023-02-28T04:24:02;0.90;99.90
14985;DHT22;7588;62.368;25.902;2023-02-28T04:26:29;0.90;99.90
14985;DHT22;7588;62.368;25.902;2023-02-28T04:28:56;0.80;99.90
14985;DHT22;7588;62.368;25.902;2023-02-28T04:31:22;0.80;99.90
14985;DHT22;7588;62.368;25.902;2023-02-28T04:33:47;0.70;99.90
14985;DHT22;7588;62.368;25.902;2023-02-28T04:36:13;0.70;99.90
14985;DHT22;7588;62.368;25.902;2023-02-28T04:38:40;0.60;99.90
14985;DHT22;7588;62.368;25.902;2023-02-28T04:41:06;0.60;99.90
14985;DHT22;7588;62.368;25.902;2023-02-28T04:43:34;0.50;99.90
14985;DHT22;7588;62.368;25.902;2023-02-28T04:46:02;0.50;99.90
14985;DHT22;7588;62.368;25.902;2023-02-28T04:48:29;0.40;99.90
14985;DHT22;7588;62.368;25.902;2023-02-28T04:50:59;0.40;99.90
14985;DHT22;7588;62.368;25.902;2023-02-28T04:53:25;0.40;99.90
14985;DHT22;7588;62.368;25.902;2023-02-28T04:55:50;0.40;99.90
14985;DHT22;7588;62.368;25.902;2023-02-28T04:58:16;0.30;99.90
14985;DHT22;7588;62.368;25.902;2023-02-28T05:00:42;0.30;99.90
14985;DHT22;7588;62.368;25.902;2023-02-28T05:03:08;0.10;99.90
14985;DHT22;7588;62.368;25.902;2023-02-28T05:05:35;0.10;99.90
14985;DHT22;7588;62.368;25.902;2023-02-28T05:08:00;0.00;99.90
14985;DHT22;7588;62.368;25.902;2023-02-28T05:10:26;-0.10;99.90
14985;DHT22;7588;62.368;25.902;2023-02-28T05:12:52;-0.10;99.90
14985;DHT22;7588;62.368;25.902;2023-02-28T05:15:17;-0.20;99.90
14985;DHT22;7588;62.368;25.902;2023-02-28T05:17:43;-0.20;99.90
14985;DHT22;7588;62.368;25.902;2023-02-28T05:20:10;-0.20;99.90
14985;DHT22;7588;62.368;25.902;2023-02-28T05:22:42;-0.20;99.90
14985;DHT22;7588;62.368;25.902;2023-02-28T05:25:26;-0.30;99.90
14985;DHT22;7588;62.368;25.902;2023-02-28T05:27:52;-0.30;99.90
14985;DHT22;7588;62.368;25.902;2023-02-28T05:30:18;-0.40;99.90
14985;DHT22;7588;62.368;25.902;2023-02-28T05:32:43;-0.40;99.90
14985;DHT22;7588;62.368;25.902;2023-02-28T05:35:12;-0.40;99.90
14985;DHT22;7588;62.368;25.902;2023-02-28T05:37:38;-0.40;99.90
14985;DHT22;7588;62.368;25.902;2023-02-28T05:40:06;-0.40;99.90
14985;DHT22;7588;62.368;25.902;2023-02-28T05:42:32;-0.40;99.90
14985;DHT22;7588;62.368;25.902;2023-02-28T05:44:58;-0.40;99.90
14985;DHT22;7588;62.368;25.902;2023-02-28T05:47:24;-0.40;99.90
14985;DHT22;7588;62.368;25.902;2023-02-28T05:49:50;-0.40;99.90
14985;DHT22;7588;62.368;25.902;2023-02-28T05:52:15;-0.50;99.90
14985;DHT22;7588;62.368;25.902;2023-02-28T05:54:41;-0.60;99.90
14985;DHT22;7588;62.368;25.902;2023-02-28T05:57:07;-0.70;99.90
14985;DHT22;7588;62.368;25.902;2023-02-28T05:59:32;-0.70;99.90
14985;DHT22;7588;62.368;25.902;2023-02-28T06:01:58;-0.70;99.90
14985;DHT22;7588;62.368;25.902;2023-02-28T06:04:24;-0.70;99.90
14985;DHT22;7588;62.368;25.902;2023-02-28T06:06:50;-0.70;99.90
14985;DHT22;7588;62.368;25.902;2023-02-28T06:09:17;-0.70;99.90
14985;DHT22;7588;62.368;25.902;2023-02-28T06:11:43;-0.70;99.90
14985;DHT22;7588;62.368;25.902;2023-02-28T06:14:17;-0.70;99.90
14985;DHT22;7588;62.368;25.902;2023-02-28T06:16:43;-0.70;99.90
14985;DHT22;7588;62.368;25.902;2023-02-28T06:19:09;-0.70;99.90
14985;DHT22;7588;62.368;25.902;2023-02-28T06:21:36;-0.70;99.90
14985;DHT22;7588;62.368;25.902;2023-02-28T06:24:02;-0.70;99.90
14985;DHT22;7588;62.368;25.902;2023-02-28T06:26:29;-0.70;99.90
14985;DHT22;7588;62.368;25.902;2023-02-28T06:28:54;-0.70;99.90
14985;DHT22;7588;62.368;25.902;2023-02-28T06:31:20;-0.70;99.90
14985;DHT22;7588;62.368;25.902;2023-02-28T06:33:48;-0.70;99.90
14985;DHT22;7588;62.368;25.902;2023-02-28T06:36:15;-0.70;99.90
14985;DHT22;7588;62.368;25.902;2023-02-28T06:38:41;-0.80;99.90
14985;DHT22;7588;62.368;25.902;2023-02-28T06:41:08;-0.80;99.90
14985;DHT22;7588;62.368;25.902;2023-02-28T06:43:37;-0.80;99.90
14985;DHT22;7588;62.368;25.902;2023-02-28T06:46:05;-0.70;99.90
14985;DHT22;7588;62.368;25.902;2023-02-28T06:48:31;-0.70;99.90
14985;DHT22;7588;62.368;25.902;2023-02-28T06:51:23;-0.80;99.90
14985;DHT22;7588;62.368;25.902;2023-02-28T06:53:50;-0.70;99.90
14985;DHT22;7588;62.368;25.902;2023-02-28T06:56:17;-0.70;99.90
14985;DHT22;7588;62.368;25.902;2023-02-28T06:58:49;-0.60;99.90
14985;DHT22;7588;62.368;25.902;2023-02-28T07:01:15;-0.60;99.90
14985;DHT22;7588;62.368;25.902;2023-02-28T07:03:41;-0.70;99.90
14985;DHT22;7588;62.368;25.902;2023-02-28T07:06:07;-0.60;99.90
14985;DHT22;7588;62.368;25.902;2023-02-28T07:08:33;-0.50;99.90
14985;DHT22;7588;62.368;25.902;2023-02-28T07:10:59;-0.40;99.90
14985;DHT22;7588;62.368;25.902;2023-02-28T07:13:25;-0.40;99.90
14985;DHT22;7588;62.368;25.902;2023-02-28T07:16:04;-0.40;99.90
14985;DHT22;7588;62.368;25.902;2023-02-28T07:18:30;-0.30;99.90
14985;DHT22;7588;62.368;25.902;2023-02-28T07:20:56;-0.30;99.90
14985;DHT22;7588;62.368;25.902;2023-02-28T07:23:22;-0.40;99.90
14985;DHT22;7588;62.368;25.902;2023-02-28T07:25:49;-0.40;99.90
14985;DHT22;7588;62.368;25.902;2023-02-28T07:28:15;-0.40;99.90
14985;DHT22;7588;62.368;25.902;2023-02-28T07:30:41;-0.50;99.90
14985;DHT22;7588;62.368;25.902;2023-02-28T07:33:07;-0.50;99.90
14985;DHT22;7588;62.368;25.902;2023-02-28T07:35:33;-0.40;99.90
14985;DHT22;7588;62.368;25.902;2023-02-28T07:37:59;-0.40;99.90
14985;DHT22;7588;62.368;25.902;2023-02-28T07:40:25;-0.40;99.90
14985;DHT22;7588;62.368;25.902;2023-02-28T07:42:51;-0.40;99.90
14985;DHT22;7588;62.368;25.902;2023-02-28T07:45:17;-0.40;99.90
14985;DHT22;7588;62.368;25.902;2023-02-28T07:47:43;-0.30;99.90
14985;DHT22;7588;62.368;25.902;2023-02-28T07:50:12;-0.30;99.90
14985;DHT22;7588;62.368;25.902;2023-02-28T07:52:39;-0.20;99.90
14985;DHT22;7588;62.368;25.902;2023-02-28T07:55:06;-0.20;99.90
14985;DHT22;7588;62.368;25.902;2023-02-28T07:57:32;-0.20;99.90
14985;DHT22;7588;62.368;25.902;2023-02-28T07:59:57;-0.10;99.90
14985;DHT22;7588;62.368;25.902;2023-02-28T08:02:23;0.10;99.90
14985;DHT22;7588;62.368;25.902;2023-02-28T08:04:49;0.20;99.90
14985;DHT22;7588;62.368;25.902;2023-02-28T08:07:15;0.40;99.90
14985;DHT22;7588;62.368;25.902;2023-02-28T08:09:42;0.70;99.90
14985;DHT22;7588;62.368;25.902;2023-02-28T08:12:09;1.10;99.90
14985;DHT22;7588;62.368;25.902;2023-02-28T08:14:35;1.70;99.90
14985;DHT22;7588;62.368;25.902;2023-02-28T08:17:01;2.10;99.90
14985;DHT22;7588;62.368;25.902;2023-02-28T08:19:27;2.70;99.90
14985;DHT22;7588;62.368;25.902;2023-02-28T08:21:53;2.80;99.90
14985;DHT22;7588;62.368;25.902;2023-02-28T08:24:19;3.10;99.90
14985;DHT22;7588;62.368;25.902;2023-02-28T08:26:45;3.30;99.90
14985;DHT22;7588;62.368;25.902;2023-02-28T08:29:10;3.20;99.90
14985;DHT22;7588;62.368;25.902;2023-02-28T08:31:36;3.70;99.90
14985;DHT22;7588;62.368;25.902;2023-02-28T08:34:12;3.70;99.90
14985;DHT22;7588;62.368;25.902;2023-02-28T08:36:39;3.60;99.90
14985;DHT22;7588;62.368;25.902;2023-02-28T08:39:05;3.60;99.90
14985;DHT22;7588;62.368;25.902;2023-02-28T08:41:31;3.20;99.90
14985;DHT22;7588;62.368;25.902;2023-02-28T08:43:57;3.30;99.90
14985;DHT22;7588;62.368;25.902;2023-02-28T08:46:23;3.00;99.90
14985;DHT22;7588;62.368;25.902;2023-02-28T08:48:55;3.00;99.90
14985;DHT22;7588;62.368;25.902;2023-02-28T08:51:22;2.80;99.90
14985;DHT22;7588;62.368;25.902;2023-02-28T08:53:52;2.60;99.90
14985;DHT22;7588;62.368;25.902;2023-02-28T08:56:18;2.30;99.90
14985;DHT22;7588;62.368;25.902;2023-02-28T08:58:46;2.10;99.90
14985;DHT22;7588;62.368;25.902;2023-02-28T09:01:14;1.90;99.90
14985;DHT22;7588;62.368;25.902;2023-02-28T09:03:41;1.60;99.90
14985;DHT22;7588;62.368;25.902;2023-02-28T09:06:08;1.60;99.90
14985;DHT22;7588;62.368;25.902;2023-02-28T09:08:34;1.60;99.90
14985;DHT22;7588;62.368;25.902;2023-02-28T09:11:00;2.20;99.90
14985;DHT22;7588;62.368;25.902;2023-02-28T09:13:27;2.70;99.90
14985;DHT22;7588;62.368;25.902;2023-02-28T09:15:53;3.00;99.50
14985;DHT22;7588;62.368;25.902;2023-02-28T09:18:19;2.70;99.50
14985;DHT22;7588;62.368;25.902;2023-02-28T09:20:45;2.90;99.00
14985;DHT22;7588;62.368;25.902;2023-02-28T09:23:12;3.00;98.00
14985;DHT22;7588;62.368;25.902;2023-02-28T09:25:48;3.10;96.30
14985;DHT22;7588;62.368;25.902;2023-02-28T09:28:15;2.90;96.00
14985;DHT22;7588;62.368;25.902;2023-02-28T09:30:44;3.10;96.10
14985;DHT22;7588;62.368;25.902;2023-02-28T09:33:09;3.00;96.20
14985;DHT22;7588;62.368;25.902;2023-02-28T09:35:35;3.10;94.70
14985;DHT22;7588;62.368;25.902;2023-02-28T09:38:03;3.70;95.40
14985;DHT22;7588;62.368;25.902;2023-02-28T09:40:29;4.00;90.10
14985;DHT22;7588;62.368;25.902;2023-02-28T09:42:57;3.70;87.50
14985;DHT22;7588;62.368;25.902;2023-02-28T09:47:53;2.60;90.80
14985;DHT22;7588;62.368;25.902;2023-02-28T09:50:40;2.20;91.60
14985;DHT22;7588;62.368;25.902;2023-02-28T09:53:21;2.10;92.80
14985;DHT22;7588;62.368;25.902;2023-02-28T09:56:04;2.20;92.00
14985;DHT22;7588;62.368;25.902;2023-02-28T10:06:54;2.20;86.10
14985;DHT22;7588;62.368;25.902;2023-02-28T10:09:29;1.90;88.80
14985;DHT22;7588;62.368;25.902;2023-02-28T10:12:03;1.80;90.30
14985;DHT22;7588;62.368;25.902;2023-02-28T10:14:32;1.80;90.00
14985;DHT22;7588;62.368;25.902;2023-02-28T10:17:06;1.60;90.30
14985;DHT22;7588;62.368;25.902;2023-02-28T10:19:46;1.60;89.90
14985;DHT22;7588;62.368;25.902;2023-02-28T10:22:40;1.50;87.90
14985;DHT22;7588;62.368;25.902;2023-02-28T10:25:24;1.50;84.00
14985;DHT22;7588;62.368;25.902;2023-02-28T10:27:54;1.50;83.70
14985;DHT22;7588;62.368;25.902;2023-02-28T10:30:24;1.50;85.00
14985;DHT22;7588;62.368;25.902;2023-02-28T10:32:51;1.60;86.10
14985;DHT22;7588;62.368;25.902;2023-02-28T10:35:26;1.70;86.50
14985;DHT22;7588;62.368;25.902;2023-02-28T10:37:57;1.90;88.80
14985;DHT22;7588;62.368;25.902;2023-02-28T10:42:57;2.00;81.50
14985;DHT22;7588;62.368;25.902;2023-02-28T10:45:25;2.10;77.40
14985;DHT22;7588;62.368;25.902;2023-02-28T10:47:55;2.20;80.40
14985;DHT22;7588;62.368;25.902;2023-02-28T10:52:55;2.60;80.30
14985;DHT22;7588;62.368;25.902;2023-02-28T10:55:25;2.30;78.20
14985;DHT22;7588;62.368;25.902;2023-02-28T10:57:51;2.10;80.90
14985;DHT22;7588;62.368;25.902;2023-02-28T11:00:23;2.10;77.90
14985;DHT22;7588;62.368;25.902;2023-02-28T11:02:51;1.90;80.30
14985;DHT22;7588;62.368;25.902;2023-02-28T11:08:12;1.60;79.40
14985;DHT22;7588;62.368;25.902;2023-02-28T11:10:39;1.50;78.20
14985;DHT22;7588;62.368;25.902;2023-02-28T11:13:17;1.30;78.60
14985;DHT22;7588;62.368;25.902;2023-02-28T11:15:51;1.20;80.00
14985;DHT22;7588;62.368;25.902;2023-02-28T11:20:51;1.20;77.80
14985;DHT22;7588;62.368;25.902;2023-02-28T11:23:18;0.90;77.50
14985;DHT22;7588;62.368;25.902;2023-02-28T11:25:51;1.00;80.60
14985;DHT22;7588;62.368;25.902;2023-02-28T11:28:34;1.30;74.60
14985;DHT22;7588;62.368;25.902;2023-02-28T11:36:31;3.00;74.60
14985;DHT22;7588;62.368;25.902;2023-02-28T11:39:07;3.50;76.70
14985;DHT22;7588;62.368;25.902;2023-02-28T11:41:48;4.10;70.20
14985;DHT22;7588;62.368;25.902;2023-02-28T11:54:59;4.20;66.20
14985;DHT22;7588;62.368;25.902;2023-02-28T12:22:34;1.30;70.40
14985;DHT22;7588;62.368;25.902;2023-02-28T12:27:51;1.50;72.60
14985;DHT22;7588;62.368;25.902;2023-02-28T12:30:30;1.70;71.90
14985;DHT22;7588;62.368;25.902;2023-02-28T12:33:17;1.70;75.70
14985;DHT22;7588;62.368;25.902;2023-02-28T12:35:56;1.80;74.60
14985;DHT22;7588;62.368;25.902;2023-02-28T12:38:35;1.60;70.70
14985;DHT22;7588;62.368;25.902;2023-02-28T12:44:31;1.50;72.60
14985;DHT22;7588;62.368;25.902;2023-02-28T12:46:56;1.40;75.00
14985;DHT22;7588;62.368;25.902;2023-02-28T12:49:29;1.40;74.30
14985;DHT22;7588;62.368;25.902;2023-02-28T12:51:58;1.20;74.20
14985;DHT22;7588;62.368;25.902;2023-02-28T12:59:48;0.80;74.10
14985;DHT22;7588;62.368;25.902;2023-02-28T13:10:50;0.70;77.20
14985;DHT22;7588;62.368;25.902;2023-02-28T13:13:22;0.70;76.70
14985;DHT22;7588;62.368;25.902;2023-02-28T13:16:09;0.60;77.00
14985;DHT22;7588;62.368;25.902;2023-02-28T13:18:39;0.60;76.60
14985;DHT22;7588;62.368;25.902;2023-02-28T13:21:08;0.70;77.20
14985;DHT22;7588;62.368;25.902;2023-02-28T13:26:22;0.70;77.00
14985;DHT22;7588;62.368;25.902;2023-02-28T13:31:14;0.60;78.30
14985;DHT22;7588;62.368;25.902;2023-02-28T13:36:31;0.50;80.10
14985;DHT22;7588;62.368;25.902;2023-02-28T13:39:01;0.50;81.20
14985;DHT22;7588;62.368;25.902;2023-02-28T13:46:33;0.30;81.90
14985;DHT22;7588;62.368;25.902;2023-02-28T13:51:46;0.20;84.20
14985;DHT22;7588;62.368;25.902;2023-02-28T13:54:37;0.20;83.30
14985;DHT22;7588;62.368;25.902;2023-02-28T13:58:02;0.20;85.60
14985;DHT22;7588;62.368;25.902;2023-02-28T14:06:09;0.20;85.50
14985;DHT22;7588;62.368;25.902;2023-02-28T14:08:36;0.20;86.50
14985;DHT22;7588;62.368;25.902;2023-02-28T14:11:08;0.10;86.40
14985;DHT22;7588;62.368;25.902;2023-02-28T14:13:43;0.10;85.70
14985;DHT22;7588;62.368;25.902;2023-02-28T14:16:23;0.10;89.00
14985;DHT22;7588;62.368;25.902;2023-02-28T14:18:55;0.00;88.50
14985;DHT22;7588;62.368;25.902;2023-02-28T14:21:27;-0.10;88.70
14985;DHT22;7588;62.368;25.902;2023-02-28T14:34:54;-0.20;91.40
14985;DHT22;7588;62.368;25.902;2023-02-28T14:37:28;-0.20;90.40
14985;DHT22;7588;62.368;25.902;2023-02-28T14:39:55;-0.20;90.80
14985;DHT22;7588;62.368;25.902;2023-02-28T14:42:37;-0.30;91.30
14985;DHT22;7588;62.368;25.902;2023-02-28T14:45:22;-0.30;91.20
14985;DHT22;7588;62.368;25.902;2023-02-28T14:47:51;-0.40;92.00
14985;DHT22;7588;62.368;25.902;2023-02-28T14:50:20;-0.40;91.70
14985;DHT22;7588;62.368;25.902;2023-02-28T14:52:46;-0.40;92.30
14985;DHT22;7588;62.368;25.902;2023-02-28T14:55:17;-0.50;92.00
14985;DHT22;7588;62.368;25.902;2023-02-28T14:58:00;-0.50;91.80
14985;DHT22;7588;62.368;25.902;2023-02-28T15:00:29;-0.50;91.90
14985;DHT22;7588;62.368;25.902;2023-02-28T15:02:59;-0.60;92.50
14985;DHT22;7588;62.368;25.902;2023-02-28T15:05:28;-0.50;91.00
14985;DHT22;7588;62.368;25.902;2023-02-28T15:08:15;-0.50;90.90
14985;DHT22;7588;62.368;25.902;2023-02-28T15:10:54;-0.50;91.30
14985;DHT22;7588;62.368;25.902;2023-02-28T15:13:21;-0.50;91.00
14985;DHT22;7588;62.368;25.902;2023-02-28T15:20:46;-0.50;91.80
14985;DHT22;7588;62.368;25.902;2023-02-28T15:23:14;-0.60;91.50
14985;DHT22;7588;62.368;25.902;2023-02-28T15:25:41;-0.60;91.50
14985;DHT22;7588;62.368;25.902;2023-02-28T15:28:15;-0.60;92.20
14985;DHT22;7588;62.368;25.902;2023-02-28T15:30:51;-0.60;91.30
14985;DHT22;7588;62.368;25.902;2023-02-28T15:33:20;-0.60;92.90
14985;DHT22;7588;62.368;25.902;2023-02-28T15:35:47;-0.70;92.50
14985;DHT22;7588;62.368;25.902;2023-02-28T15:38:25;-0.70;92.80
14985;DHT22;7588;62.368;25.902;2023-02-28T15:40:54;-0.70;92.40
14985;DHT22;7588;62.368;25.902;2023-02-28T15:46:11;-0.80;93.60
14985;DHT22;7588;62.368;25.902;2023-02-28T15:51:34;-0.80;93.40
14985;DHT22;7588;62.368;25.902;2023-02-28T15:54:07;-0.90;93.60
14985;DHT22;7588;62.368;25.902;2023-02-28T15:56:38;-1.00;93.80
14985;DHT22;7588;62.368;25.902;2023-02-28T15:59:07;-1.00;94.00
14985;DHT22;7588;62.368;25.902;2023-02-28T16:01:38;-0.90;94.40
14985;DHT22;7588;62.368;25.902;2023-02-28T16:04:15;-0.90;94.10
14985;DHT22;7588;62.368;25.902;2023-02-28T16:07:04;-0.80;95.60
14985;DHT22;7588;62.368;25.902;2023-02-28T16:09:30;-0.80;95.00
14985;DHT22;7588;62.368;25.902;2023-02-28T16:12:00;-0.80;95.30
14985;DHT22;7588;62.368;25.902;2023-02-28T16:14:31;-0.70;95.40
14985;DHT22;7588;62.368;25.902;2023-02-28T16:17:03;-0.70;95.10
14985;DHT22;7588;62.368;25.902;2023-02-28T16:19:29;-0.60;94.60
14985;DHT22;7588;62.368;25.902;2023-02-28T16:21:54;-0.60;95.20
14985;DHT22;7588;62.368;25.902;2023-02-28T16:24:20;-0.50;94.80
14985;DHT22;7588;62.368;25.902;2023-02-28T16:26:47;-0.60;95.50
14985;DHT22;7588;62.368;25.902;2023-02-28T16:29:17;-0.70;95.60
14985;DHT22;7588;62.368;25.902;2023-02-28T16:31:45;-0.80;95.80
14985;DHT22;7588;62.368;25.902;2023-02-28T16:34:10;-0.90;96.50
14985;DHT22;7588;62.368;25.902;2023-02-28T16:36:36;-0.90;96.30
14985;DHT22;7588;62.368;25.902;2023-02-28T16:39:02;-0.80;94.80
14985;DHT22;7588;62.368;25.902;2023-02-28T16:41:28;-0.90;96.30
14985;DHT22;7588;62.368;25.902;2023-02-28T16:43:55;-0.90;96.10
14985;DHT22;7588;62.368;25.902;2023-02-28T16:46:33;-1.00;96.90
14985;DHT22;7588;62.368;25.902;2023-02-28T16:48:59;-1.10;97.20
14985;DHT22;7588;62.368;25.902;2023-02-28T16:51:25;-1.00;98.10
14985;DHT22;7588;62.368;25.902;2023-02-28T16:53:51;-1.00;98.10
14985;DHT22;7588;62.368;25.902;2023-02-28T16:56:20;-1.00;97.60
14985;DHT22;7588;62.368;25.902;2023-02-28T16:58:48;-1.00;98.30
14985;DHT22;7588;62.368;25.902;2023-02-28T17:01:14;-1.00;98.70
14985;DHT22;7588;62.368;25.902;2023-02-28T17:03:40;-1.00;98.40
14985;DHT22;7588;62.368;25.902;2023-02-28T17:06:13;-1.00;98.40
14985;DHT22;7588;62.368;25.902;2023-02-28T17:08:41;-0.90;98.30
14985;DHT22;7588;62.368;25.902;2023-02-28T17:11:07;-1.00;99.20
14985;DHT22;7588;62.368;25.902;2023-02-28T17:13:33;-0.90;98.60
14985;DHT22;7588;62.368;25.902;2023-02-28T17:16:00;-1.00;98.60
14985;DHT22;7588;62.368;25.902;2023-02-28T17:18:26;-1.00;98.80
14985;DHT22;7588;62.368;25.902;2023-02-28T17:20:54;-1.10;99.90
14985;DHT22;7588;62.368;25.902;2023-02-28T17:23:19;-1.20;99.90
14985;DHT22;7588;62.368;25.902;2023-02-28T17:25:45;-1.30;99.90
14985;DHT22;7588;62.368;25.902;2023-02-28T17:28:19;-1.30;99.90
14985;DHT22;7588;62.368;25.902;2023-02-28T17:30:46;-1.40;99.90
14985;DHT22;7588;62.368;25.902;2023-02-28T17:33:13;-1.50;99.90
14985;DHT22;7588;62.368;25.902;2023-02-28T17:35:38;-1.60;99.90
14985;DHT22;7588;62.368;25.902;2023-02-28T17:38:04;-1.50;99.90
14985;DHT22;7588;62.368;25.902;2023-02-28T17:40:30;-1.40;99.90
14985;DHT22;7588;62.368;25.902;2023-02-28T17:42:56;-1.30;99.90
14985;DHT22;7588;62.368;25.902;2023-02-28T17:45:22;-1.30;99.90
14985;DHT22;7588;62.368;25.902;2023-02-28T17:47:49;-1.20;99.90
14985;DHT22;7588;62.368;25.902;2023-02-28T17:50:20;-1.20;99.90
14985;DHT22;7588;62.368;25.902;2023-02-28T17:52:48;-1.10;99.90
14985;DHT22;7588;62.368;25.902;2023-02-28T17:55:15;-1.00;99.90
14985;DHT22;7588;62.368;25.902;2023-02-28T17:57:42;-1.00;99.90
14985;DHT22;7588;62.368;25.902;2023-02-28T18:00:10;-1.00;99.90
14985;DHT22;7588;62.368;25.902;2023-02-28T18:02:37;-1.00;99.90
14985;DHT22;7588;62.368;25.902;2023-02-28T18:05:03;-1.10;99.90
14985;DHT22;7588;62.368;25.902;2023-02-28T18:07:30;-1.20;99.90
14985;DHT22;7588;62.368;25.902;2023-02-28T18:09:55;-1.30;99.90
14985;DHT22;7588;62.368;25.902;2023-02-28T18:12:21;-1.40;99.90
14985;DHT22;7588;62.368;25.902;2023-02-28T18:14:47;-1.40;99.90
14985;DHT22;7588;62.368;25.902;2023-02-28T18:17:13;-1.50;99.90
14985;DHT22;7588;62.368;25.902;2023-02-28T18:19:38;-1.50;99.90
14985;DHT22;7588;62.368;25.902;2023-02-28T18:22:04;-1.60;99.90
14985;DHT22;7588;62.368;25.902;2023-02-28T18:24:32;-1.70;99.90
14985;DHT22;7588;62.368;25.902;2023-02-28T18:26:58;-1.60;99.90
14985;DHT22;7588;62.368;25.902;2023-02-28T18:29:26;-1.60;99.90
14985;DHT22;7588;62.368;25.902;2023-02-28T18:31:53;-1.60;99.90